createdAt,value
2023-04-12T00:02:03.185Z,98086.09
2023-04-12T00:04:30.228Z,98099.44
2023-04-12T00:06:58.103Z,98108.47
2023-04-12T00:09:24.864Z,98108.59
2023-04-12T00:11:51.760Z,98103.31
2023-04-12T00:14:18.871Z,98086.25
2023-04-12T00:16:46.556Z,98093.94
2023-04-12T00:19:13.506Z,98086.50
2023-04-12T00:21:40.405Z,98101.16
2023-04-12T00:24:07.737Z,98088.78
2023-04-12T00:26:34.798Z,98080.75
2023-04-12T00:29:01.879Z,98087.00
2023-04-12T00:31:29.366Z,98089.25
2023-04-12T00:33:56.719Z,98084.72
2023-04-12T00:36:23.723Z,98085.09
2023-04-12T00:38:50.488Z,98087.72
2023-04-12T00:41:17.866Z,98081.69
2023-04-12T00:43:44.896Z,98073.44
2023-04-12T00:46:14.516Z,98078.47
2023-04-12T00:48:41.780Z,98079.16
2023-04-12T00:51:08.897Z,98081.56
2023-04-12T00:53:36.523Z,98079.97
2023-04-12T00:56:04.325Z,98079.28
2023-04-12T00:58:31.929Z,98075.88
2023-04-12T01:00:59.059Z,98078.75
2023-04-12T01:03:27.936Z,98078.88
2023-04-12T01:06:04.562Z,98065.63
2023-04-12T01:09:19.108Z,98075.13
2023-04-12T01:11:57.356Z,98063.88
2023-04-12T01:14:46.254Z,98066.44
2023-04-12T01:17:20.984Z,98056.66
2023-04-12T01:20:06.526Z,98048.44
2023-04-12T01:22:42.603Z,98078.88
2023-04-12T01:25:16.494Z,98063.88
2023-04-12T01:27:48.352Z,98055.19
2023-04-12T01:30:19.522Z,98050.31
2023-04-12T01:32:51.377Z,98051.97
2023-04-12T01:35:21.349Z,98045.69
2023-04-12T01:37:48.559Z,98042.75
2023-04-12T01:40:18.726Z,98031.63
2023-04-12T01:42:45.817Z,98025.88
2023-04-12T01:45:12.906Z,98034.13
2023-04-12T01:47:39.966Z,98044.53
2023-04-12T01:50:27.832Z,98046.50
2023-04-12T01:53:08.863Z,98046.34
2023-04-12T01:55:39.139Z,98032.78
2023-04-12T01:58:07.802Z,98029.56
2023-04-12T02:00:37.139Z,98024.22
2023-04-12T02:03:05.935Z,98036.59
2023-04-12T02:05:34.130Z,98027.41
2023-04-12T02:08:02.972Z,98030.97
2023-04-12T02:10:32.077Z,98021.00
2023-04-12T02:13:00.638Z,98030.84
2023-04-12T02:15:30.887Z,98026.69
2023-04-12T02:17:59.750Z,98023.28
2023-04-12T02:20:27.304Z,98019.84
2023-04-12T02:22:54.379Z,98015.84
2023-04-12T02:25:21.513Z,98016.66
2023-04-12T02:27:49.204Z,98022.59
2023-04-12T02:30:16.299Z,98009.81
2023-04-12T02:32:48.460Z,97998.34
2023-04-12T02:35:24.949Z,98020.47
2023-04-12T02:37:58.034Z,98009.22
2023-04-12T02:40:28.969Z,98023.19
2023-04-12T02:42:56.254Z,98030.28
2023-04-12T02:45:25.120Z,98029.50
2023-04-12T02:47:53.207Z,98033.50
2023-04-12T02:50:24.635Z,98007.94
2023-04-12T02:52:59.054Z,98025.88
2023-04-12T02:55:27.117Z,98018.97
2023-04-12T02:57:55.239Z,98024.94
2023-04-12T03:00:24.365Z,98012.22
2023-04-12T03:02:58.972Z,98010.75
2023-04-12T03:05:28.846Z,98021.25
2023-04-12T03:07:56.351Z,98014.31
2023-04-12T03:10:36.004Z,98022.88
2023-04-12T03:13:04.988Z,98020.72
2023-04-12T03:15:37.508Z,98015.31
2023-04-12T03:18:05.213Z,98023.66
2023-04-12T03:20:46.884Z,98019.63
2023-04-12T03:23:15.128Z,98026.63
2023-04-12T03:25:48.676Z,98026.50
2023-04-12T03:28:34.723Z,98028.69
2023-04-12T03:31:04.816Z,98028.69
2023-04-12T03:33:43.236Z,98034.66
2023-04-12T03:36:21.771Z,98033.38
2023-04-12T03:38:54.258Z,98027.56
2023-04-12T03:41:24.651Z,98032.22
2023-04-12T03:43:51.790Z,98021.00
2023-04-12T03:46:19.196Z,98020.31
2023-04-12T03:48:53.841Z,98031.91
2023-04-12T03:51:22.369Z,98038.19
2023-04-12T03:53:49.351Z,98031.09
2023-04-12T03:56:16.772Z,98024.00
2023-04-12T03:58:47.672Z,98026.41
2023-04-12T04:01:18.203Z,98040.25
2023-04-12T04:03:46.820Z,98030.16
2023-04-12T04:06:24.940Z,98038.84
2023-04-12T04:08:55.582Z,98041.81
2023-04-12T04:11:22.527Z,98045.56
2023-04-12T04:13:53.322Z,98040.63
2023-04-12T04:16:20.485Z,98053.25
2023-04-12T04:18:49.094Z,98053.22
2023-04-12T04:21:19.717Z,98052.97
2023-04-12T04:23:48.760Z,98057.91
2023-04-12T04:26:17.200Z,98075.25
2023-04-12T04:28:55.444Z,98064.19
2023-04-12T04:31:36.743Z,98059.75
2023-04-12T04:34:06.074Z,98067.63
2023-04-12T04:36:38.085Z,98077.00
2023-04-12T04:39:06.154Z,98078.59
2023-04-12T04:42:10.489Z,98073.91
2023-04-12T04:44:39.000Z,98084.22
2023-04-12T04:47:09.017Z,98093.53
2023-04-12T04:49:39.724Z,98079.22
2023-04-12T04:52:23.511Z,98076.47
2023-04-12T04:54:57.464Z,98084.56
2023-04-12T04:57:29.169Z,98078.41
2023-04-12T04:59:56.987Z,98077.53
2023-04-12T05:02:24.120Z,98089.44
2023-04-12T05:04:51.435Z,98067.22
2023-04-12T05:07:22.349Z,98080.22
2023-04-12T05:09:52.798Z,98062.22
2023-04-12T05:12:20.984Z,98074.97
2023-04-12T05:14:52.120Z,98082.81
2023-04-12T05:17:19.481Z,98071.09
2023-04-12T05:19:46.267Z,98069.81
2023-04-12T05:22:14.692Z,98063.34
2023-04-12T05:24:41.685Z,98061.59
2023-04-12T05:27:08.977Z,98070.09
2023-04-12T05:29:36.000Z,98071.03
2023-04-12T05:32:05.023Z,98068.06
2023-04-12T05:34:32.354Z,98075.63
2023-04-12T05:36:59.997Z,98064.19
2023-04-12T05:39:33.455Z,98071.75
2023-04-12T05:42:00.398Z,98071.88
2023-04-12T05:44:27.278Z,98065.78
2023-04-12T05:46:54.535Z,98068.53
2023-04-12T05:49:21.632Z,98071.28
2023-04-12T05:51:48.846Z,98071.50
2023-04-12T05:54:21.766Z,98079.31
2023-04-12T05:56:54.459Z,98076.09
2023-04-12T05:59:22.755Z,98061.78
2023-04-12T06:01:50.250Z,98070.25
2023-04-12T06:04:19.964Z,98069.22
2023-04-12T06:06:47.614Z,98069.22
2023-04-12T06:09:15.848Z,98077.03
2023-04-12T06:11:43.606Z,98070.19
2023-04-12T06:14:11.843Z,98066.09
2023-04-12T06:16:40.651Z,98077.63
2023-04-12T06:19:15.081Z,98053.25
2023-04-12T06:21:42.100Z,98070.19
2023-04-12T06:24:09.463Z,98067.34
2023-04-12T06:26:39.769Z,98060.47
2023-04-12T06:29:07.523Z,98053.38
2023-04-12T06:31:35.168Z,98068.38
2023-04-12T06:34:03.259Z,98055.31
2023-04-12T06:36:52.042Z,98044.91
2023-04-12T06:39:19.075Z,98048.47
2023-04-12T06:41:47.622Z,98055.31
2023-04-12T06:44:19.597Z,98062.19
2023-04-12T06:46:46.746Z,98070.78
2023-04-12T06:49:14.247Z,98058.09
2023-04-12T06:51:41.067Z,98067.47
2023-04-12T06:54:07.878Z,98080.88
2023-04-12T06:56:37.177Z,98071.50
2023-04-12T06:59:04.422Z,98068.97
2023-04-12T07:01:31.592Z,98084.19
2023-04-12T07:03:58.744Z,98079.13
2023-04-12T07:06:26.453Z,98072.03
2023-04-12T07:08:53.514Z,98085.44
2023-04-12T07:11:22.992Z,98072.72
2023-04-12T07:13:51.478Z,98086.25
2023-04-12T07:16:18.633Z,98079.59
2023-04-12T07:18:45.676Z,98076.53
2023-04-12T07:21:17.622Z,98074.69
2023-04-12T07:23:44.899Z,98084.19
2023-04-12T07:26:11.949Z,98089.94
2023-04-12T07:28:39.546Z,98088.56
2023-04-12T07:31:07.442Z,98089.47
2023-04-12T07:33:36.189Z,98088.22
2023-04-12T07:36:04.875Z,98093.16
2023-04-12T07:38:31.765Z,98088.91
2023-04-12T07:40:58.681Z,98087.22
2023-04-12T07:43:25.600Z,98092.94
2023-04-12T07:45:55.747Z,98091.03
2023-04-12T07:48:22.944Z,98079.25
2023-04-12T07:50:49.856Z,98084.75
2023-04-12T07:53:24.427Z,98091.13
2023-04-12T07:58:52.655Z,98080.03
2023-04-12T08:01:49.643Z,98088.38
2023-04-12T08:04:16.561Z,98088.50
2023-04-12T08:06:46.581Z,98087.81
2023-04-12T08:09:13.559Z,98086.78
2023-04-12T08:11:40.625Z,98083.81
2023-04-12T08:14:07.419Z,98077.28
2023-04-12T08:17:01.569Z,98088.84
2023-04-12T08:22:38.238Z,98084.03
2023-04-12T08:25:30.516Z,98091.13
2023-04-12T08:27:58.173Z,98079.47
2023-04-12T08:30:27.046Z,98074.88
2023-04-12T08:32:54.430Z,98074.53
2023-04-12T08:35:35.590Z,98076.00
2023-04-12T08:38:37.198Z,98056.81
2023-04-12T08:41:08.942Z,98072.47
2023-04-12T08:43:44.017Z,98066.84
2023-04-12T08:46:13.391Z,98060.88
2023-04-12T08:48:43.334Z,98063.88
2023-04-12T08:51:19.345Z,98069.91
2023-04-12T08:53:46.284Z,98067.00
2023-04-12T08:56:14.724Z,98067.34
2023-04-12T08:58:45.717Z,98071.25
2023-04-12T09:01:14.997Z,98062.34
2023-04-12T09:03:46.993Z,98077.94
2023-04-12T09:06:14.585Z,98064.44
2023-04-12T09:08:56.294Z,98061.38
2023-04-12T09:11:27.661Z,98066.00
2023-04-12T09:13:55.512Z,98061.56
2023-04-12T09:16:42.604Z,98057.03
2023-04-12T09:19:09.798Z,98058.03
2023-04-12T09:21:37.373Z,98058.63
2023-04-12T09:24:12.379Z,98044.75
2023-04-12T09:26:40.687Z,98040.84
2023-04-12T09:29:24.253Z,98044.72
2023-04-12T09:32:06.139Z,98047.81
2023-04-12T09:34:37.600Z,98046.13
2023-04-12T09:37:17.558Z,98038.84
2023-04-12T09:39:44.499Z,98045.53
2023-04-12T09:42:31.793Z,98040.06
2023-04-12T09:45:01.775Z,98051.81
2023-04-12T09:47:39.572Z,98043.41
2023-04-12T09:50:08.596Z,98035.84
2023-04-12T09:52:40.295Z,98044.28
2023-04-12T09:55:10.013Z,98045.63
2023-04-12T09:57:44.117Z,98035.31
2023-04-12T10:00:17.635Z,98051.63
2023-04-12T10:02:48.112Z,98060.06
2023-04-12T10:05:21.819Z,98070.13
2023-04-12T10:07:50.140Z,98071.03
2023-04-12T10:10:18.652Z,98078.53
2023-04-12T10:12:47.945Z,98070.44
2023-04-12T10:15:18.031Z,98073.38
2023-04-12T10:17:47.177Z,98077.34
2023-04-12T10:20:15.568Z,98069.28
2023-04-12T10:22:45.092Z,98076.72
2023-04-12T10:25:20.674Z,98060.13
2023-04-12T10:27:48.804Z,98055.88
2023-04-12T10:30:22.898Z,98060.47
2023-04-12T10:33:10.821Z,98064.69
2023-04-12T10:36:04.041Z,98076.31
2023-04-12T10:38:37.416Z,98076.31
2023-04-12T10:41:21.453Z,98073.97
2023-04-12T10:43:52.206Z,98071.91
2023-04-12T10:46:40.062Z,98067.06
2023-04-12T10:49:11.878Z,98067.25
2023-04-12T10:51:38.880Z,98057.34
2023-04-12T10:54:12.484Z,98062.44
2023-04-12T10:56:41.901Z,98063.06
2023-04-12T10:59:14.381Z,98069.56
2023-04-12T11:02:13.650Z,98057.00
2023-04-12T11:05:04.597Z,98066.44
2023-04-12T11:07:53.997Z,98062.53
2023-04-12T11:10:39.740Z,98068.53
2023-04-12T11:13:09.511Z,98067.63
2023-04-12T11:15:39.913Z,98066.41
2023-04-12T11:18:12.554Z,98068.81
2023-04-12T11:20:41.033Z,98065.50
2023-04-12T11:23:10.615Z,98064.25
2023-04-12T11:25:38.943Z,98065.16
2023-04-12T11:28:17.181Z,98063.31
2023-04-12T11:30:54.981Z,98051.03
2023-04-12T11:33:38.911Z,98069.13
2023-04-12T11:36:14.374Z,98061.78
2023-04-12T11:38:42.021Z,98068.63
2023-04-12T11:41:09.726Z,98061.06
2023-04-12T11:43:40.354Z,98061.81
2023-04-12T11:46:07.473Z,98074.88
2023-04-12T11:48:35.140Z,98067.66
2023-04-12T11:51:19.175Z,98013.78
2023-04-12T11:53:46.185Z,98084.34
2023-04-12T11:56:12.970Z,98087.47
2023-04-12T11:58:39.977Z,98096.75
2023-04-12T12:01:07.297Z,98094.13
2023-04-12T12:03:35.423Z,98098.38
2023-04-12T12:06:02.806Z,98096.53
2023-04-12T12:08:30.029Z,98092.03
2023-04-12T12:11:07.190Z,98107.34
2023-04-12T12:13:49.163Z,98111.22
2023-04-12T12:16:17.751Z,98109.44
2023-04-12T12:18:46.218Z,98114.72
2023-04-12T12:21:14.767Z,98121.50
2023-04-12T12:23:46.328Z,98119.16
2023-04-12T12:26:25.283Z,98132.94
2023-04-12T12:28:57.756Z,98143.47
2023-04-12T12:31:28.120Z,98152.84
2023-04-12T12:33:57.405Z,98155.56
2023-04-12T12:36:36.354Z,98146.88
2023-04-12T12:39:10.786Z,98147.88
2023-04-12T12:41:39.356Z,98154.78
2023-04-12T12:44:08.324Z,98158.59
2023-04-12T12:49:06.217Z,98170.78
2023-04-12T12:51:33.185Z,98153.84
2023-04-12T12:54:01.018Z,98134.34
2023-04-12T12:56:27.984Z,98154.44
2023-04-12T12:58:55.075Z,98158.25
2023-04-12T13:01:22.151Z,98159.41
2023-04-12T13:03:49.250Z,98141.56
2023-04-12T13:06:16.587Z,98149.38
2023-04-12T13:08:43.698Z,98144.00
2023-04-12T13:11:10.620Z,98150.56
2023-04-12T13:13:37.575Z,98147.81
2023-04-12T13:16:04.709Z,98147.34
2023-04-12T13:18:31.693Z,98142.44
2023-04-12T13:20:58.733Z,98131.84
2023-04-12T13:23:25.653Z,98134.81
2023-04-12T13:25:53.329Z,98137.03
2023-04-12T13:28:20.893Z,98147.69
2023-04-12T13:30:48.876Z,98134.91
2023-04-12T13:33:20.184Z,98143.63
2023-04-12T13:35:48.866Z,98144.53
2023-04-12T13:38:15.798Z,98140.19
2023-04-12T13:40:42.604Z,98141.09
2023-04-12T13:43:09.597Z,98153.00
2023-04-12T13:45:36.836Z,98143.75
2023-04-12T13:48:04.196Z,98137.44
2023-04-12T13:50:31.524Z,98158.28
2023-04-12T13:52:58.301Z,98150.50
2023-04-12T13:55:25.434Z,98154.63
2023-04-12T13:57:52.714Z,98164.72
2023-04-12T14:00:20.328Z,98159.56
2023-04-12T14:02:47.457Z,98163.81
2023-04-12T14:05:15.198Z,98167.94
2023-04-12T14:08:54.835Z,98170.56
2023-04-12T14:11:27.567Z,98170.09
2023-04-12T14:13:54.823Z,98175.03
2023-04-12T14:16:21.854Z,98167.13
2023-04-12T14:18:48.795Z,98173.88
2023-04-12T14:21:15.819Z,98174.69
2023-04-12T14:23:42.660Z,98179.56
2023-04-12T14:26:16.040Z,98181.53
2023-04-12T14:28:43.304Z,98185.78
2023-04-12T14:31:10.407Z,98179.56
2023-04-12T14:33:38.783Z,98173.59
2023-04-12T14:36:05.996Z,98165.56
2023-04-12T14:38:32.914Z,98156.97
2023-04-12T14:41:00.133Z,98162.19
2023-04-12T14:43:27.836Z,98162.97
2023-04-12T14:45:54.828Z,98171.66
2023-04-12T14:48:21.954Z,98160.63
2023-04-12T14:50:49.035Z,98165.31
2023-04-12T14:53:16.501Z,98170.31
2023-04-12T14:55:44.749Z,98176.56
2023-04-12T14:58:11.982Z,98176.22
2023-04-12T15:00:40.256Z,98175.00
2023-04-12T15:03:07.553Z,98186.91
2023-04-12T15:05:36.348Z,98184.41
2023-04-12T15:08:04.437Z,98187.06
2023-04-12T15:10:31.907Z,98188.06
2023-04-12T15:12:59.025Z,98185.56
2023-04-12T15:15:26.376Z,98186.16
2023-04-12T15:17:53.282Z,98189.59
2023-04-12T15:20:20.258Z,98181.59
2023-04-12T15:22:47.313Z,98195.81
2023-04-12T15:25:14.210Z,98185.03
2023-04-12T15:27:41.528Z,98185.84
2023-04-12T15:30:10.867Z,98182.97
2023-04-12T15:32:39.953Z,98188.94
2023-04-12T15:35:25.297Z,98184.22
2023-04-12T15:37:54.457Z,98173.53
2023-04-12T15:40:33.275Z,98176.94
2023-04-12T15:43:00.506Z,98174.53
2023-04-12T15:45:27.472Z,98176.38
2023-04-12T15:47:55.345Z,98178.09
2023-04-12T15:50:22.463Z,98181.75
2023-04-12T15:52:49.675Z,98194.38
2023-04-12T15:55:18.842Z,98187.97
2023-04-12T15:57:45.933Z,98182.34
2023-04-12T16:00:27.096Z,98186.59
2023-04-12T16:02:56.251Z,98185.25
2023-04-12T16:05:27.486Z,98184.34
2023-04-12T16:07:54.574Z,98184.44
2023-04-12T16:10:22.295Z,98182.53
2023-04-12T16:12:50.848Z,98178.84
2023-04-12T16:15:19.539Z,98183.91
2023-04-12T16:17:48.178Z,98193.78
2023-04-12T16:20:21.858Z,98185.19
2023-04-12T16:22:54.331Z,98187.59
2023-04-12T16:25:27.328Z,98168.25
2023-04-12T16:27:55.532Z,98191.16
2023-04-12T16:30:32.173Z,98191.50
2023-04-12T16:33:00.070Z,98199.41
2023-04-12T16:35:27.270Z,98191.19
2023-04-12T16:37:54.820Z,98203.47
2023-04-12T16:40:22.385Z,98201.41
2023-04-12T16:43:03.503Z,98204.16
2023-04-12T16:45:30.764Z,98196.47
2023-04-12T16:47:58.134Z,98211.84
2023-04-12T16:51:04.998Z,98214.47
2023-04-12T16:53:31.864Z,98204.16
2023-04-12T16:56:04.670Z,98226.06
2023-04-12T16:58:33.169Z,98220.44
2023-04-12T17:01:00.301Z,98223.88
2023-04-12T17:03:27.735Z,98220.22
2023-04-12T17:05:54.664Z,98218.16
2023-04-12T17:08:22.822Z,98235.56
2023-04-12T17:10:52.522Z,98235.13
2023-04-12T17:13:20.336Z,98223.06
2023-04-12T17:15:58.683Z,98225.56
2023-04-12T17:18:25.746Z,98237.84
2023-04-12T17:20:52.918Z,98242.66
2023-04-12T17:23:20.795Z,98242.88
2023-04-12T17:25:47.626Z,98251.16
2023-04-12T17:28:15.435Z,98246.44
2023-04-12T17:30:42.392Z,98254.34
2023-04-12T17:33:09.282Z,98255.38
2023-04-12T17:35:36.697Z,98260.88
2023-04-12T17:38:03.654Z,98253.19
2023-04-12T17:40:30.519Z,98250.66
2023-04-12T17:42:57.438Z,98254.56
2023-04-12T17:45:24.723Z,98267.88
2023-04-12T17:47:51.986Z,98268.09
2023-04-12T17:50:18.859Z,98282.31
2023-04-12T17:52:45.777Z,98281.59
2023-04-12T17:55:12.953Z,98297.66
2023-04-12T17:57:40.528Z,98284.59
2023-04-12T18:00:14.277Z,98290.75
2023-04-12T18:02:43.702Z,98301.44
2023-04-12T18:05:11.324Z,98305.78
2023-04-12T18:07:40.238Z,98301.44
2023-04-12T18:10:12.621Z,98303.94
2023-04-12T18:12:41.167Z,98314.63
2023-04-12T18:15:08.619Z,98324.63
2023-04-12T18:17:35.949Z,98328.16
2023-04-12T18:20:05.525Z,98336.88
2023-04-12T18:22:32.605Z,98335.63
2023-04-12T18:24:59.577Z,98339.16
2023-04-12T18:27:26.521Z,98355.00
2023-04-12T18:29:53.571Z,98340.09
2023-04-12T18:32:41.927Z,98348.22
2023-04-12T18:35:39.776Z,98345.47
2023-04-12T18:38:12.613Z,98338.13
2023-04-12T18:40:39.587Z,98342.34
2023-04-12T18:43:06.637Z,98348.06
2023-04-12T18:45:37.886Z,98356.19
2023-04-12T18:48:05.083Z,98344.38
2023-04-12T18:50:31.853Z,98332.41
2023-04-12T18:52:59.089Z,98352.84
2023-04-12T18:55:26.076Z,98359.47
2023-04-12T18:57:52.879Z,98364.16
2023-04-12T19:00:21.490Z,98363.94
2023-04-12T19:02:48.539Z,98363.00
2023-04-12T19:05:15.493Z,98363.34
2023-04-12T19:07:42.513Z,98361.25
2023-04-12T19:10:09.949Z,98360.00
2023-04-12T19:12:36.929Z,98349.69
2023-04-12T19:15:04.747Z,98352.75
2023-04-12T19:17:31.772Z,98352.25
2023-04-12T19:19:58.915Z,98351.44
2023-04-12T19:22:28.022Z,98346.28
2023-04-12T19:24:55.175Z,98364.84
2023-04-12T19:27:22.990Z,98361.97
2023-04-12T19:29:51.785Z,98351.78
2023-04-12T19:32:19.220Z,98373.59
2023-04-12T19:34:47.361Z,98358.28
2023-04-12T19:37:14.219Z,98364.84
2023-04-12T19:39:41.372Z,98372.16
2023-04-12T19:42:08.170Z,98370.06
2023-04-12T19:44:35.180Z,98378.78
2023-04-12T19:47:02.278Z,98374.91
2023-04-12T19:49:29.653Z,98353.31
2023-04-12T19:51:57.471Z,98360.41
2023-04-12T19:54:26.010Z,98368.00
2023-04-12T19:57:17.870Z,98372.69
2023-04-12T19:59:46.694Z,98377.72
2023-04-12T20:02:13.583Z,98374.38
2023-04-12T20:04:40.728Z,98382.75
2023-04-12T20:07:07.587Z,98388.44
2023-04-12T20:09:34.649Z,98378.09
2023-04-12T20:12:01.954Z,98390.03
2023-04-12T20:14:28.855Z,98391.19
2023-04-12T20:16:58.604Z,98381.84
2023-04-12T20:19:27.640Z,98390.38
2023-04-12T20:22:01.858Z,98397.53
2023-04-12T20:24:30.504Z,98390.75
2023-04-12T20:26:57.634Z,98369.38
2023-04-12T20:29:24.539Z,98371.13
2023-04-12T20:31:53.671Z,98386.94
2023-04-12T20:34:21.203Z,98402.28
2023-04-12T20:36:48.356Z,98388.72
2023-04-12T20:39:15.806Z,98394.09
2023-04-12T20:41:46.563Z,98404.88
2023-04-12T20:44:13.495Z,98393.41
2023-04-12T20:46:41.444Z,98402.28
2023-04-12T20:49:08.406Z,98409.06
2023-04-12T20:51:35.382Z,98412.41
2023-04-12T20:54:03.073Z,98420.47
2023-04-12T20:56:30.150Z,98419.66
2023-04-12T20:58:57.420Z,98431.75
2023-04-12T21:01:25.609Z,98439.03
2023-04-12T21:03:53.474Z,98426.91
2023-04-12T21:06:20.591Z,98428.66
2023-04-12T21:08:48.835Z,98429.97
2023-04-12T21:11:16.502Z,98435.97
2023-04-12T21:13:44.699Z,98441.78
2023-04-12T21:16:16.119Z,98455.19
2023-04-12T21:18:43.136Z,98441.94
2023-04-12T21:21:10.275Z,98437.91
2023-04-12T21:23:37.192Z,98437.75
2023-04-12T21:26:04.348Z,98454.53
2023-04-12T21:28:31.495Z,98439.97
2023-04-12T21:30:58.537Z,98441.94
2023-04-12T21:33:25.653Z,98445.94
2023-04-12T21:35:54.483Z,98451.44
2023-04-12T21:38:22.802Z,98454.66
2023-04-12T21:40:50.415Z,98447.38
2023-04-12T21:43:17.637Z,98454.47
2023-04-12T21:45:45.474Z,98457.88
2023-04-12T21:48:14.661Z,98456.94
2023-04-12T21:50:42.196Z,98447.41
2023-04-12T21:53:09.228Z,98461.63
2023-04-12T21:55:36.572Z,98461.16
2023-04-12T21:58:03.930Z,98463.63
2023-04-12T22:00:32.348Z,98450.22
2023-04-12T22:02:59.915Z,98457.19
2023-04-12T22:05:30.351Z,98459.44
2023-04-12T22:07:57.877Z,98460.78
2023-04-12T22:10:24.698Z,98458.84
2023-04-12T22:12:51.550Z,98461.44
2023-04-12T22:15:18.671Z,98451.09
2023-04-12T22:17:45.569Z,98442.56
2023-04-12T22:20:13.329Z,98481.13
2023-04-12T22:22:41.066Z,98475.50
2023-04-12T22:25:11.930Z,98480.34
2023-04-12T22:27:39.550Z,98469.69
2023-04-12T22:30:10.120Z,98471.94
2023-04-12T22:32:37.097Z,98462.91
2023-04-12T22:35:08.875Z,98471.09
2023-04-12T22:37:41.204Z,98473.03
2023-04-12T22:40:12.440Z,98477.72
2023-04-12T22:42:46.343Z,98462.75
2023-04-12T22:45:15.254Z,98460.88
2023-04-12T22:47:43.091Z,98464.38
2023-04-12T22:50:12.891Z,98462.28
2023-04-12T22:52:40.559Z,98463.75
2023-04-12T22:55:09.450Z,98462.59
2023-04-12T22:57:36.338Z,98462.59
2023-04-12T23:00:07.422Z,98463.28
2023-04-12T23:02:34.622Z,98467.03
2023-04-12T23:05:02.786Z,98457.38
2023-04-12T23:07:30.350Z,98467.72
2023-04-12T23:09:57.928Z,98471.91
2023-04-12T23:12:24.885Z,98474.34
2023-04-12T23:14:55.644Z,98473.38
2023-04-12T23:17:22.958Z,98465.69
2023-04-12T23:19:53.188Z,98472.31
2023-04-12T23:22:48.548Z,98473.91
2023-04-12T23:25:21.995Z,98476.81
2023-04-12T23:27:49.597Z,98473.44
2023-04-12T23:30:18.417Z,98458.75
2023-04-12T23:32:45.474Z,98471.66
2023-04-12T23:35:12.574Z,98486.50
2023-04-12T23:37:41.759Z,98474.84
2023-04-12T23:40:15.262Z,98479.38
2023-04-12T23:42:43.589Z,98488.09
2023-04-12T23:45:12.080Z,98486.63
2023-04-12T23:47:39.125Z,98490.53
2023-04-12T23:50:07.550Z,98490.81
2023-04-12T23:52:34.447Z,98495.66
2023-04-12T23:55:02.725Z,98493.09
2023-04-12T23:57:29.878Z,98503.25
2023-04-12T23:59:56.828Z,98486.94
